sensor_id;sensor_type;location;lat;lon;timestamp;P1;durP1;ratioP1;P2;durP2;ratioP2
1178;SDS011;578;48.408;10.004;2022-08-23T00:01:42;7.83;;;7.13;;
1178;SDS011;578;48.408;10.004;2022-08-23T00:04:11;6.77;;;6.17;;
1178;SDS011;578;48.408;10.004;2022-08-23T00:06:42;8.03;;;7.43;;
1178;SDS011;578;48.408;10.004;2022-08-23T00:09:12;8.17;;;7.37;;
1178;SDS011;578;48.408;10.004;2022-08-23T00:11:41;12.43;;;7.33;;
1178;SDS011;578;48.408;10.004;2022-08-23T00:14:11;7.80;;;7.10;;
1178;SDS011;578;48.408;10.004;2022-08-23T00:16:43;7.93;;;7.13;;
1178;SDS011;578;48.408;10.004;2022-08-23T00:19:12;8.87;;;7.50;;
1178;SDS011;578;48.408;10.004;2022-08-23T00:21:41;9.40;;;8.50;;
1178;SDS011;578;48.408;10.004;2022-08-23T00:24:09;9.20;;;7.67;;
1178;SDS011;578;48.408;10.004;2022-08-23T00:26:55;9.13;;;8.23;;
1178;SDS011;578;48.408;10.004;2022-08-23T00:29:25;9.30;;;7.90;;
1178;SDS011;578;48.408;10.004;2022-08-23T00:31:54;9.43;;;7.83;;
1178;SDS011;578;48.408;10.004;2022-08-23T00:34:21;9.50;;;7.93;;
1178;SDS011;578;48.408;10.004;2022-08-23T00:36:48;9.17;;;8.37;;
1178;SDS011;578;48.408;10.004;2022-08-23T00:39:17;10.00;;;9.10;;
1178;SDS011;578;48.408;10.004;2022-08-23T00:41:45;8.87;;;8.17;;
1178;SDS011;578;48.408;10.004;2022-08-23T00:44:16;11.10;;;9.77;;
1178;SDS011;578;48.408;10.004;2022-08-23T00:47:04;9.80;;;8.93;;
1178;SDS011;578;48.408;10.004;2022-08-23T00:49:51;9.03;;;8.23;;
1178;SDS011;578;48.408;10.004;2022-08-23T00:52:24;10.53;;;9.53;;
1178;SDS011;578;48.408;10.004;2022-08-23T00:54:57;10.33;;;9.43;;
1178;SDS011;578;48.408;10.004;2022-08-23T00:57:24;9.37;;;8.57;;
1178;SDS011;578;48.408;10.004;2022-08-23T00:59:52;8.93;;;8.13;;
1178;SDS011;578;48.408;10.004;2022-08-23T01:02:19;11.30;;;8.93;;
1178;SDS011;578;48.408;10.004;2022-08-23T01:04:49;9.87;;;8.87;;
1178;SDS011;578;48.408;10.004;2022-08-23T01:07:22;9.90;;;9.00;;
1178;SDS011;578;48.408;10.004;2022-08-23T01:09:58;9.73;;;8.90;;
1178;SDS011;578;48.408;10.004;2022-08-23T01:12:35;10.27;;;9.17;;
1178;SDS011;578;48.408;10.004;2022-08-23T01:15:08;11.20;;;10.10;;
1178;SDS011;578;48.408;10.004;2022-08-23T01:17:41;11.73;;;10.10;;
1178;SDS011;578;48.408;10.004;2022-08-23T01:20:12;10.13;;;9.23;;
1178;SDS011;578;48.408;10.004;2022-08-23T01:22:42;11.27;;;10.17;;
1178;SDS011;578;48.408;10.004;2022-08-23T01:25:18;10.27;;;9.27;;
1178;SDS011;578;48.408;10.004;2022-08-23T01:27:46;10.23;;;9.23;;
1178;SDS011;578;48.408;10.004;2022-08-23T01:30:14;9.30;;;8.40;;
1178;SDS011;578;48.408;10.004;2022-08-23T01:32:43;14.43;;;10.00;;
1178;SDS011;578;48.408;10.004;2022-08-23T01:35:13;10.27;;;9.07;;
1178;SDS011;578;48.408;10.004;2022-08-23T01:37:40;9.57;;;8.77;;
1178;SDS011;578;48.408;10.004;2022-08-23T01:40:07;10.83;;;9.33;;
1178;SDS011;578;48.408;10.004;2022-08-23T01:42:36;11.00;;;9.37;;
1178;SDS011;578;48.408;10.004;2022-08-23T01:45:06;9.53;;;8.60;;
1178;SDS011;578;48.408;10.004;2022-08-23T01:47:34;9.47;;;8.67;;
1178;SDS011;578;48.408;10.004;2022-08-23T01:50:01;9.93;;;9.17;;
1178;SDS011;578;48.408;10.004;2022-08-23T01:52:28;11.13;;;10.03;;
1178;SDS011;578;48.408;10.004;2022-08-23T01:54:55;10.13;;;9.13;;
1178;SDS011;578;48.408;10.004;2022-08-23T01:57:21;12.20;;;10.13;;
1178;SDS011;578;48.408;10.004;2022-08-23T01:59:50;12.80;;;10.57;;
1178;SDS011;578;48.408;10.004;2022-08-23T02:02:17;12.20;;;10.93;;
1178;SDS011;578;48.408;10.004;2022-08-23T02:04:44;18.60;;;11.60;;
1178;SDS011;578;48.408;10.004;2022-08-23T02:07:10;12.63;;;11.53;;
1178;SDS011;578;48.408;10.004;2022-08-23T02:09:37;12.97;;;11.50;;
1178;SDS011;578;48.408;10.004;2022-08-23T02:12:04;13.13;;;10.60;;
1178;SDS011;578;48.408;10.004;2022-08-23T02:14:31;11.90;;;11.00;;
1178;SDS011;578;48.408;10.004;2022-08-23T02:16:59;12.50;;;11.40;;
1178;SDS011;578;48.408;10.004;2022-08-23T02:19:26;11.60;;;10.60;;
1178;SDS011;578;48.408;10.004;2022-08-23T02:21:52;11.03;;;9.77;;
1178;SDS011;578;48.408;10.004;2022-08-23T02:24:19;11.00;;;9.70;;
1178;SDS011;578;48.408;10.004;2022-08-23T02:26:50;10.97;;;9.97;;
1178;SDS011;578;48.408;10.004;2022-08-23T02:29:20;11.30;;;10.03;;
1178;SDS011;578;48.408;10.004;2022-08-23T02:31:48;11.47;;;10.37;;
1178;SDS011;578;48.408;10.004;2022-08-23T02:34:16;11.47;;;10.47;;
1178;SDS011;578;48.408;10.004;2022-08-23T02:36:44;10.93;;;9.87;;
1178;SDS011;578;48.408;10.004;2022-08-23T02:39:11;12.07;;;10.87;;
1178;SDS011;578;48.408;10.004;2022-08-23T02:41:39;11.30;;;10.20;;
1178;SDS011;578;48.408;10.004;2022-08-23T02:44:06;13.20;;;10.20;;
1178;SDS011;578;48.408;10.004;2022-08-23T02:46:34;11.77;;;10.87;;
1178;SDS011;578;48.408;10.004;2022-08-23T02:49:01;12.70;;;11.50;;
1178;SDS011;578;48.408;10.004;2022-08-23T02:51:30;12.13;;;10.20;;
1178;SDS011;578;48.408;10.004;2022-08-23T02:53:56;12.47;;;11.27;;
1178;SDS011;578;48.408;10.004;2022-08-23T02:56:23;12.40;;;11.17;;
1178;SDS011;578;48.408;10.004;2022-08-23T02:58:50;10.90;;;9.80;;
1178;SDS011;578;48.408;10.004;2022-08-23T03:01:18;13.13;;;10.10;;
1178;SDS011;578;48.408;10.004;2022-08-23T03:03:46;11.53;;;10.33;;
1178;SDS011;578;48.408;10.004;2022-08-23T03:06:13;13.13;;;10.40;;
1178;SDS011;578;48.408;10.004;2022-08-23T03:08:42;12.00;;;10.80;;
1178;SDS011;578;48.408;10.004;2022-08-23T03:11:09;14.70;;;11.60;;
1178;SDS011;578;48.408;10.004;2022-08-23T03:13:37;16.37;;;11.40;;
1178;SDS011;578;48.408;10.004;2022-08-23T03:16:04;11.50;;;10.33;;
1178;SDS011;578;48.408;10.004;2022-08-23T03:18:32;15.70;;;11.40;;
1178;SDS011;578;48.408;10.004;2022-08-23T03:20:59;12.07;;;10.80;;
1178;SDS011;578;48.408;10.004;2022-08-23T03:23:25;11.53;;;10.47;;
1178;SDS011;578;48.408;10.004;2022-08-23T03:25:54;12.30;;;11.30;;
1178;SDS011;578;48.408;10.004;2022-08-23T03:28:22;12.53;;;11.40;;
1178;SDS011;578;48.408;10.004;2022-08-23T03:30:49;14.20;;;12.00;;
1178;SDS011;578;48.408;10.004;2022-08-23T03:33:16;13.03;;;11.80;;
1178;SDS011;578;48.408;10.004;2022-08-23T03:35:43;12.30;;;11.03;;
1178;SDS011;578;48.408;10.004;2022-08-23T03:38:10;12.13;;;11.10;;
1178;SDS011;578;48.408;10.004;2022-08-23T03:40:37;14.27;;;12.40;;
1178;SDS011;578;48.408;10.004;2022-08-23T03:43:06;13.33;;;12.23;;
1178;SDS011;578;48.408;10.004;2022-08-23T03:45:33;13.57;;;12.37;;
1178;SDS011;578;48.408;10.004;2022-08-23T03:48:00;13.33;;;12.13;;
1178;SDS011;578;48.408;10.004;2022-08-23T03:50:27;14.90;;;13.40;;
1178;SDS011;578;48.408;10.004;2022-08-23T03:52:54;14.20;;;12.80;;
1178;SDS011;578;48.408;10.004;2022-08-23T03:55:20;15.63;;;14.17;;
1178;SDS011;578;48.408;10.004;2022-08-23T03:57:47;13.90;;;12.60;;
1178;SDS011;578;48.408;10.004;2022-08-23T04:00:15;14.07;;;12.87;;
1178;SDS011;578;48.408;10.004;2022-08-23T04:02:42;14.60;;;13.13;;
1178;SDS011;578;48.408;10.004;2022-08-23T04:05:09;13.60;;;12.40;;
1178;SDS011;578;48.408;10.004;2022-08-23T04:07:36;14.57;;;13.37;;
1178;SDS011;578;48.408;10.004;2022-08-23T04:10:04;14.20;;;12.50;;
1178;SDS011;578;48.408;10.004;2022-08-23T04:12:32;14.07;;;12.63;;
1178;SDS011;578;48.408;10.004;2022-08-23T04:15:00;14.47;;;13.10;;
1178;SDS011;578;48.408;10.004;2022-08-23T04:17:28;14.40;;;13.00;;
1178;SDS011;578;48.408;10.004;2022-08-23T04:19:54;14.53;;;13.33;;
1178;SDS011;578;48.408;10.004;2022-08-23T04:22:21;15.50;;;13.93;;
1178;SDS011;578;48.408;10.004;2022-08-23T04:24:48;15.87;;;14.30;;
1178;SDS011;578;48.408;10.004;2022-08-23T04:27:15;15.00;;;13.70;;
1178;SDS011;578;48.408;10.004;2022-08-23T04:29:42;16.50;;;14.80;;
1178;SDS011;578;48.408;10.004;2022-08-23T04:32:09;16.07;;;14.33;;
1178;SDS011;578;48.408;10.004;2022-08-23T04:34:38;15.50;;;14.10;;
1178;SDS011;578;48.408;10.004;2022-08-23T04:37:06;18.63;;;13.27;;
1178;SDS011;578;48.408;10.004;2022-08-23T04:39:33;14.70;;;13.50;;
1178;SDS011;578;48.408;10.004;2022-08-23T04:42:20;18.63;;;12.77;;
1178;SDS011;578;48.408;10.004;2022-08-23T04:44:47;13.57;;;12.17;;
1178;SDS011;578;48.408;10.004;2022-08-23T04:47:14;13.80;;;12.50;;
1178;SDS011;578;48.408;10.004;2022-08-23T04:49:42;13.97;;;12.53;;
1178;SDS011;578;48.408;10.004;2022-08-23T04:52:10;15.53;;;13.93;;
1178;SDS011;578;48.408;10.004;2022-08-23T04:54:38;16.13;;;14.40;;
1178;SDS011;578;48.408;10.004;2022-08-23T04:57:04;14.13;;;12.73;;
1178;SDS011;578;48.408;10.004;2022-08-23T04:59:31;15.53;;;14.13;;
1178;SDS011;578;48.408;10.004;2022-08-23T05:01:58;14.37;;;13.07;;
1178;SDS011;578;48.408;10.004;2022-08-23T05:04:24;16.30;;;14.90;;
1178;SDS011;578;48.408;10.004;2022-08-23T05:06:52;15.13;;;13.83;;
1178;SDS011;578;48.408;10.004;2022-08-23T05:09:19;16.10;;;14.70;;
1178;SDS011;578;48.408;10.004;2022-08-23T05:11:48;15.20;;;13.90;;
1178;SDS011;578;48.408;10.004;2022-08-23T05:14:15;15.00;;;13.37;;
1178;SDS011;578;48.408;10.004;2022-08-23T05:16:42;14.60;;;13.30;;
1178;SDS011;578;48.408;10.004;2022-08-23T05:19:09;14.63;;;13.23;;
1178;SDS011;578;48.408;10.004;2022-08-23T05:21:35;14.13;;;12.90;;
1178;SDS011;578;48.408;10.004;2022-08-23T05:24:04;15.40;;;13.80;;
1178;SDS011;578;48.408;10.004;2022-08-23T05:26:30;14.77;;;13.13;;
1178;SDS011;578;48.408;10.004;2022-08-23T05:28:57;15.77;;;14.27;;
1178;SDS011;578;48.408;10.004;2022-08-23T05:31:24;14.50;;;13.30;;
1178;SDS011;578;48.408;10.004;2022-08-23T05:33:53;14.70;;;13.43;;
1178;SDS011;578;48.408;10.004;2022-08-23T05:36:20;14.13;;;12.83;;
1178;SDS011;578;48.408;10.004;2022-08-23T05:38:47;15.03;;;13.63;;
1178;SDS011;578;48.408;10.004;2022-08-23T05:41:16;14.20;;;12.90;;
1178;SDS011;578;48.408;10.004;2022-08-23T05:43:42;15.00;;;13.53;;
1178;SDS011;578;48.408;10.004;2022-08-23T05:46:10;14.83;;;13.37;;
1178;SDS011;578;48.408;10.004;2022-08-23T05:48:39;14.30;;;12.80;;
1178;SDS011;578;48.408;10.004;2022-08-23T05:51:07;14.07;;;12.77;;
1178;SDS011;578;48.408;10.004;2022-08-23T05:53:35;12.13;;;11.13;;
1178;SDS011;578;48.408;10.004;2022-08-23T05:56:13;9.93;;;8.93;;
1178;SDS011;578;48.408;10.004;2022-08-23T05:58:42;10.13;;;7.70;;
1178;SDS011;578;48.408;10.004;2022-08-23T06:01:10;8.53;;;7.63;;
1178;SDS011;578;48.408;10.004;2022-08-23T06:03:39;7.60;;;6.90;;
1178;SDS011;578;48.408;10.004;2022-08-23T06:06:06;7.60;;;5.97;;
1178;SDS011;578;48.408;10.004;2022-08-23T06:08:34;7.97;;;6.23;;
1178;SDS011;578;48.408;10.004;2022-08-23T06:11:03;8.30;;;6.30;;
1178;SDS011;578;48.408;10.004;2022-08-23T06:13:31;7.50;;;5.80;;
1178;SDS011;578;48.408;10.004;2022-08-23T06:16:00;6.93;;;5.30;;
1178;SDS011;578;48.408;10.004;2022-08-23T06:18:30;6.53;;;5.73;;
1178;SDS011;578;48.408;10.004;2022-08-23T06:20:58;6.80;;;5.43;;
1178;SDS011;578;48.408;10.004;2022-08-23T06:23:26;10.07;;;5.73;;
1178;SDS011;578;48.408;10.004;2022-08-23T06:25:53;8.07;;;5.87;;
1178;SDS011;578;48.408;10.004;2022-08-23T06:28:20;6.77;;;5.20;;
1178;SDS011;578;48.408;10.004;2022-08-23T06:30:47;5.70;;;5.20;;
1178;SDS011;578;48.408;10.004;2022-08-23T06:33:15;6.97;;;5.43;;
1178;SDS011;578;48.408;10.004;2022-08-23T06:35:42;8.47;;;6.03;;
1178;SDS011;578;48.408;10.004;2022-08-23T06:38:08;7.90;;;5.30;;
1178;SDS011;578;48.408;10.004;2022-08-23T06:40:36;6.50;;;5.87;;
1178;SDS011;578;48.408;10.004;2022-08-23T06:43:03;6.30;;;5.80;;
1178;SDS011;578;48.408;10.004;2022-08-23T06:45:30;6.40;;;5.80;;
1178;SDS011;578;48.408;10.004;2022-08-23T06:47:57;7.73;;;5.50;;
1178;SDS011;578;48.408;10.004;2022-08-23T06:50:25;8.23;;;5.97;;
1178;SDS011;578;48.408;10.004;2022-08-23T06:52:52;6.90;;;6.30;;
1178;SDS011;578;48.408;10.004;2022-08-23T06:55:19;10.23;;;9.23;;
1178;SDS011;578;48.408;10.004;2022-08-23T06:57:45;18.03;;;16.40;;
1178;SDS011;578;48.408;10.004;2022-08-23T07:00:12;15.10;;;13.80;;
1178;SDS011;578;48.408;10.004;2022-08-23T07:02:39;14.47;;;13.07;;
1178;SDS011;578;48.408;10.004;2022-08-23T07:05:06;10.37;;;9.37;;
1178;SDS011;578;48.408;10.004;2022-08-23T07:07:34;10.40;;;9.50;;
1178;SDS011;578;48.408;10.004;2022-08-23T07:10:01;9.30;;;8.50;;
1178;SDS011;578;48.408;10.004;2022-08-23T07:12:29;12.90;;;11.60;;
1178;SDS011;578;48.408;10.004;2022-08-23T07:14:55;12.40;;;11.30;;
1178;SDS011;578;48.408;10.004;2022-08-23T07:17:22;15.60;;;14.20;;
1178;SDS011;578;48.408;10.004;2022-08-23T07:19:49;13.97;;;12.60;;
1178;SDS011;578;48.408;10.004;2022-08-23T07:22:16;16.70;;;15.10;;
1178;SDS011;578;48.408;10.004;2022-08-23T07:24:45;17.70;;;15.83;;
1178;SDS011;578;48.408;10.004;2022-08-23T07:27:12;18.93;;;17.13;;
1178;SDS011;578;48.408;10.004;2022-08-23T07:29:39;17.10;;;15.60;;
1178;SDS011;578;48.408;10.004;2022-08-23T07:32:06;15.50;;;14.07;;
1178;SDS011;578;48.408;10.004;2022-08-23T07:34:34;24.57;;;18.87;;
1178;SDS011;578;48.408;10.004;2022-08-23T07:37:01;19.37;;;17.53;;
1178;SDS011;578;48.408;10.004;2022-08-23T07:39:28;20.97;;;18.87;;
1178;SDS011;578;48.408;10.004;2022-08-23T07:41:58;19.43;;;17.37;;
1178;SDS011;578;48.408;10.004;2022-08-23T07:44:25;25.53;;;18.40;;
1178;SDS011;578;48.408;10.004;2022-08-23T07:46:52;19.23;;;15.00;;
1178;SDS011;578;48.408;10.004;2022-08-23T07:49:19;23.43;;;17.50;;
1178;SDS011;578;48.408;10.004;2022-08-23T07:51:46;21.10;;;15.10;;
1178;SDS011;578;48.408;10.004;2022-08-23T07:54:14;16.20;;;14.07;;
1178;SDS011;578;48.408;10.004;2022-08-23T07:56:42;22.50;;;15.50;;
1178;SDS011;578;48.408;10.004;2022-08-23T07:59:11;18.30;;;14.50;;
1178;SDS011;578;48.408;10.004;2022-08-23T08:01:39;16.30;;;12.63;;
1178;SDS011;578;48.408;10.004;2022-08-23T08:04:08;15.60;;;12.83;;
1178;SDS011;578;48.408;10.004;2022-08-23T08:06:37;14.83;;;13.20;;
1178;SDS011;578;48.408;10.004;2022-08-23T08:09:06;12.10;;;10.80;;
1178;SDS011;578;48.408;10.004;2022-08-23T08:11:34;13.17;;;11.30;;
1178;SDS011;578;48.408;10.004;2022-08-23T08:14:02;19.73;;;12.57;;
1178;SDS011;578;48.408;10.004;2022-08-23T08:16:32;14.40;;;11.63;;
1178;SDS011;578;48.408;10.004;2022-08-23T08:19:00;16.07;;;14.33;;
1178;SDS011;578;48.408;10.004;2022-08-23T08:21:29;16.50;;;14.93;;
1178;SDS011;578;48.408;10.004;2022-08-23T08:23:56;17.30;;;15.30;;
1178;SDS011;578;48.408;10.004;2022-08-23T08:26:23;15.10;;;13.63;;
1178;SDS011;578;48.408;10.004;2022-08-23T08:28:52;14.77;;;13.30;;
1178;SDS011;578;48.408;10.004;2022-08-23T08:31:20;13.70;;;12.40;;
1178;SDS011;578;48.408;10.004;2022-08-23T08:33:48;15.47;;;14.03;;
1178;SDS011;578;48.408;10.004;2022-08-23T08:36:28;28.97;;;26.13;;
1178;SDS011;578;48.408;10.004;2022-08-23T08:38:57;34.43;;;31.27;;
1178;SDS011;578;48.408;10.004;2022-08-23T08:41:25;36.47;;;32.97;;
1178;SDS011;578;48.408;10.004;2022-08-23T08:44:02;33.27;;;30.03;;
1178;SDS011;578;48.408;10.004;2022-08-23T08:46:40;31.10;;;28.10;;
1178;SDS011;578;48.408;10.004;2022-08-23T08:49:12;25.90;;;23.50;;
1178;SDS011;578;48.408;10.004;2022-08-23T08:51:43;27.93;;;25.30;;
1178;SDS011;578;48.408;10.004;2022-08-23T08:54:16;26.93;;;24.43;;
1178;SDS011;578;48.408;10.004;2022-08-23T08:56:47;28.50;;;25.63;;
1178;SDS011;578;48.408;10.004;2022-08-23T08:59:18;15.53;;;14.00;;
1178;SDS011;578;48.408;10.004;2022-08-23T09:01:47;14.67;;;13.27;;
1178;SDS011;578;48.408;10.004;2022-08-23T09:04:16;15.33;;;13.93;;
1178;SDS011;578;48.408;10.004;2022-08-23T09:06:47;20.83;;;18.87;;
1178;SDS011;578;48.408;10.004;2022-08-23T09:09:23;23.53;;;21.03;;
1178;SDS011;578;48.408;10.004;2022-08-23T09:12:08;26.57;;;23.90;;
1178;SDS011;578;48.408;10.004;2022-08-23T09:14:45;26.27;;;23.47;;
1178;SDS011;578;48.408;10.004;2022-08-23T09:17:23;30.10;;;22.30;;
1178;SDS011;578;48.408;10.004;2022-08-23T09:19:58;24.23;;;21.73;;
1178;SDS011;578;48.408;10.004;2022-08-23T09:22:29;20.50;;;18.37;;
1178;SDS011;578;48.408;10.004;2022-08-23T09:25:01;18.87;;;17.00;;
1178;SDS011;578;48.408;10.004;2022-08-23T09:27:28;17.23;;;15.50;;
1178;SDS011;578;48.408;10.004;2022-08-23T09:29:56;16.67;;;14.87;;
1178;SDS011;578;48.408;10.004;2022-08-23T09:32:27;13.07;;;11.70;;
1178;SDS011;578;48.408;10.004;2022-08-23T09:37:44;9.87;;;7.70;;
1178;SDS011;578;48.408;10.004;2022-08-23T09:40:18;8.60;;;7.37;;
1178;SDS011;578;48.408;10.004;2022-08-23T09:43:00;10.93;;;9.80;;
1178;SDS011;578;48.408;10.004;2022-08-23T09:45:33;9.50;;;8.57;;
1178;SDS011;578;48.408;10.004;2022-08-23T09:48:01;10.00;;;7.73;;
1178;SDS011;578;48.408;10.004;2022-08-23T09:50:30;8.00;;;7.20;;
1178;SDS011;578;48.408;10.004;2022-08-23T09:53:03;7.53;;;6.30;;
1178;SDS011;578;48.408;10.004;2022-08-23T09:55:34;8.13;;;6.60;;
1178;SDS011;578;48.408;10.004;2022-08-23T09:58:03;5.80;;;5.20;;
1178;SDS011;578;48.408;10.004;2022-08-23T10:00:33;7.73;;;5.90;;
1178;SDS011;578;48.408;10.004;2022-08-23T10:05:54;9.90;;;8.70;;
1178;SDS011;578;48.408;10.004;2022-08-23T10:08:24;10.30;;;9.30;;
1178;SDS011;578;48.408;10.004;2022-08-23T10:10:52;11.47;;;10.30;;
1178;SDS011;578;48.408;10.004;2022-08-23T10:13:23;9.80;;;8.90;;
1178;SDS011;578;48.408;10.004;2022-08-23T10:15:53;9.10;;;6.97;;
1178;SDS011;578;48.408;10.004;2022-08-23T10:18:30;8.63;;;7.80;;
1178;SDS011;578;48.408;10.004;2022-08-23T10:21:09;9.33;;;8.43;;
1178;SDS011;578;48.408;10.004;2022-08-23T10:23:45;10.63;;;9.23;;
1178;SDS011;578;48.408;10.004;2022-08-23T10:26:20;9.93;;;4.73;;
1178;SDS011;578;48.408;10.004;2022-08-23T10:28:52;6.50;;;4.50;;
1178;SDS011;578;48.408;10.004;2022-08-23T10:31:42;4.43;;;3.77;;
1178;SDS011;578;48.408;10.004;2022-08-23T10:34:19;5.33;;;3.80;;
1178;SDS011;578;48.408;10.004;2022-08-23T10:37:11;6.00;;;4.50;;
1178;SDS011;578;48.408;10.004;2022-08-23T10:39:54;5.30;;;4.40;;
1178;SDS011;578;48.408;10.004;2022-08-23T10:42:30;3.67;;;3.37;;
1178;SDS011;578;48.408;10.004;2022-08-23T10:45:05;4.00;;;2.70;;
1178;SDS011;578;48.408;10.004;2022-08-23T10:47:42;4.00;;;2.80;;
1178;SDS011;578;48.408;10.004;2022-08-23T10:50:22;2.53;;;2.33;;
1178;SDS011;578;48.408;10.004;2022-08-23T10:52:54;3.47;;;2.60;;
1178;SDS011;578;48.408;10.004;2022-08-23T10:55:28;3.13;;;2.73;;
1178;SDS011;578;48.408;10.004;2022-08-23T10:58:08;3.33;;;2.80;;
1178;SDS011;578;48.408;10.004;2022-08-23T11:00:40;4.20;;;2.67;;
1178;SDS011;578;48.408;10.004;2022-08-23T11:03:10;6.70;;;3.07;;
1178;SDS011;578;48.408;10.004;2022-08-23T11:05:44;4.63;;;3.47;;
1178;SDS011;578;48.408;10.004;2022-08-23T11:08:58;3.63;;;2.77;;
1178;SDS011;578;48.408;10.004;2022-08-23T11:11:31;3.60;;;2.70;;
1178;SDS011;578;48.408;10.004;2022-08-23T11:14:04;4.10;;;3.17;;
1178;SDS011;578;48.408;10.004;2022-08-23T11:16:34;5.00;;;3.30;;
1178;SDS011;578;48.408;10.004;2022-08-23T11:19:09;3.30;;;2.77;;
1178;SDS011;578;48.408;10.004;2022-08-23T11:21:43;3.63;;;3.20;;
1178;SDS011;578;48.408;10.004;2022-08-23T11:24:29;5.10;;;2.70;;
1178;SDS011;578;48.408;10.004;2022-08-23T11:27:03;4.07;;;3.10;;
1178;SDS011;578;48.408;10.004;2022-08-23T11:29:33;3.83;;;3.30;;
1178;SDS011;578;48.408;10.004;2022-08-23T11:32:12;4.67;;;3.10;;
1178;SDS011;578;48.408;10.004;2022-08-23T11:34:47;4.80;;;3.00;;
1178;SDS011;578;48.408;10.004;2022-08-23T11:37:26;4.03;;;3.20;;
1178;SDS011;578;48.408;10.004;2022-08-23T11:40:11;3.90;;;3.50;;
1178;SDS011;578;48.408;10.004;2022-08-23T11:42:48;3.77;;;3.00;;
1178;SDS011;578;48.408;10.004;2022-08-23T11:45:22;3.70;;;3.40;;
1178;SDS011;578;48.408;10.004;2022-08-23T11:53:38;2.80;;;2.60;;
1178;SDS011;578;48.408;10.004;2022-08-23T11:56:18;5.40;;;3.73;;
1178;SDS011;578;48.408;10.004;2022-08-23T11:59:11;6.67;;;3.17;;
1178;SDS011;578;48.408;10.004;2022-08-23T12:01:46;3.80;;;2.73;;
1178;SDS011;578;48.408;10.004;2022-08-23T12:04:25;4.00;;;2.80;;
1178;SDS011;578;48.408;10.004;2022-08-23T12:06:57;4.23;;;3.13;;
1178;SDS011;578;48.408;10.004;2022-08-23T12:09:50;3.47;;;3.17;;
1178;SDS011;578;48.408;10.004;2022-08-23T12:12:30;3.63;;;3.33;;
1178;SDS011;578;48.408;10.004;2022-08-23T12:14:58;3.67;;;2.87;;
1178;SDS011;578;48.408;10.004;2022-08-23T12:20:36;7.83;;;3.30;;
1178;SDS011;578;48.408;10.004;2022-08-23T12:23:07;3.90;;;2.67;;
1178;SDS011;578;48.408;10.004;2022-08-23T12:25:43;3.07;;;2.77;;
1178;SDS011;578;48.408;10.004;2022-08-23T12:28:21;4.03;;;3.17;;
1178;SDS011;578;48.408;10.004;2022-08-23T12:30:56;6.70;;;2.60;;
1178;SDS011;578;48.408;10.004;2022-08-23T12:33:28;4.40;;;3.33;;
1178;SDS011;578;48.408;10.004;2022-08-23T12:36:05;3.53;;;3.10;;
1178;SDS011;578;48.408;10.004;2022-08-23T12:38:41;3.90;;;3.10;;
1178;SDS011;578;48.408;10.004;2022-08-23T12:41:47;3.47;;;3.00;;
1178;SDS011;578;48.408;10.004;2022-08-23T12:44:18;6.03;;;3.50;;
1178;SDS011;578;48.408;10.004;2022-08-23T12:46:47;3.63;;;2.50;;
1178;SDS011;578;48.408;10.004;2022-08-23T12:49:21;5.70;;;2.87;;
1178;SDS011;578;48.408;10.004;2022-08-23T12:51:52;4.40;;;3.27;;
1178;SDS011;578;48.408;10.004;2022-08-23T12:54:21;3.80;;;2.93;;
1178;SDS011;578;48.408;10.004;2022-08-23T12:56:58;5.60;;;2.73;;
1178;SDS011;578;48.408;10.004;2022-08-23T12:59:32;4.10;;;2.90;;
1178;SDS011;578;48.408;10.004;2022-08-23T13:02:02;4.17;;;3.20;;
1178;SDS011;578;48.408;10.004;2022-08-23T13:04:33;4.13;;;3.40;;
1178;SDS011;578;48.408;10.004;2022-08-23T13:07:03;3.30;;;2.70;;
1178;SDS011;578;48.408;10.004;2022-08-23T13:09:35;5.23;;;3.23;;
1178;SDS011;578;48.408;10.004;2022-08-23T13:12:05;2.70;;;2.40;;
1178;SDS011;578;48.408;10.004;2022-08-23T13:14:34;2.57;;;2.17;;
1178;SDS011;578;48.408;10.004;2022-08-23T13:17:12;4.67;;;3.03;;
1178;SDS011;578;48.408;10.004;2022-08-23T13:19:42;4.00;;;3.27;;
1178;SDS011;578;48.408;10.004;2022-08-23T13:22:10;4.10;;;3.40;;
1178;SDS011;578;48.408;10.004;2022-08-23T13:24:40;3.50;;;3.10;;
1178;SDS011;578;48.408;10.004;2022-08-23T13:27:13;3.53;;;3.13;;
1178;SDS011;578;48.408;10.004;2022-08-23T13:29:50;6.07;;;3.13;;
1178;SDS011;578;48.408;10.004;2022-08-23T13:32:32;3.80;;;3.33;;
1178;SDS011;578;48.408;10.004;2022-08-23T13:37:57;4.80;;;3.13;;
1178;SDS011;578;48.408;10.004;2022-08-23T13:40:27;3.70;;;3.17;;
1178;SDS011;578;48.408;10.004;2022-08-23T13:42:58;3.70;;;3.40;;
1178;SDS011;578;48.408;10.004;2022-08-23T13:45:28;4.40;;;3.30;;
1178;SDS011;578;48.408;10.004;2022-08-23T13:47:58;3.83;;;3.20;;
1178;SDS011;578;48.408;10.004;2022-08-23T13:50:29;4.57;;;3.40;;
1178;SDS011;578;48.408;10.004;2022-08-23T13:52:57;4.83;;;3.07;;
1178;SDS011;578;48.408;10.004;2022-08-23T13:55:24;4.53;;;3.30;;
1178;SDS011;578;48.408;10.004;2022-08-23T13:57:53;4.50;;;2.83;;
1178;SDS011;578;48.408;10.004;2022-08-23T14:00:22;3.17;;;2.87;;
1178;SDS011;578;48.408;10.004;2022-08-23T14:02:49;3.60;;;3.30;;
1178;SDS011;578;48.408;10.004;2022-08-23T14:05:17;3.80;;;3.07;;
1178;SDS011;578;48.408;10.004;2022-08-23T14:07:48;4.87;;;3.20;;
1178;SDS011;578;48.408;10.004;2022-08-23T14:10:17;5.70;;;3.40;;
1178;SDS011;578;48.408;10.004;2022-08-23T14:12:45;4.57;;;3.37;;
1178;SDS011;578;48.408;10.004;2022-08-23T14:15:14;3.80;;;3.10;;
1178;SDS011;578;48.408;10.004;2022-08-23T14:17:43;4.87;;;3.50;;
1178;SDS011;578;48.408;10.004;2022-08-23T14:20:11;5.47;;;3.40;;
1178;SDS011;578;48.408;10.004;2022-08-23T14:22:38;9.63;;;2.93;;
1178;SDS011;578;48.408;10.004;2022-08-23T14:25:06;3.47;;;3.17;;
1178;SDS011;578;48.408;10.004;2022-08-23T14:27:34;7.47;;;3.10;;
1178;SDS011;578;48.408;10.004;2022-08-23T14:30:03;4.63;;;3.30;;
1178;SDS011;578;48.408;10.004;2022-08-23T14:32:30;3.97;;;3.57;;
1178;SDS011;578;48.408;10.004;2022-08-23T14:34:58;4.23;;;2.97;;
1178;SDS011;578;48.408;10.004;2022-08-23T14:37:25;4.70;;;3.30;;
1178;SDS011;578;48.408;10.004;2022-08-23T14:39:52;6.40;;;3.63;;
1178;SDS011;578;48.408;10.004;2022-08-23T14:42:20;5.10;;;3.30;;
1178;SDS011;578;48.408;10.004;2022-08-23T14:44:48;4.50;;;3.43;;
1178;SDS011;578;48.408;10.004;2022-08-23T14:47:15;3.33;;;3.03;;
1178;SDS011;578;48.408;10.004;2022-08-23T14:49:42;4.20;;;3.03;;
1178;SDS011;578;48.408;10.004;2022-08-23T14:52:10;3.40;;;3.10;;
1178;SDS011;578;48.408;10.004;2022-08-23T14:54:39;5.10;;;3.27;;
1178;SDS011;578;48.408;10.004;2022-08-23T14:57:06;4.80;;;4.23;;
1178;SDS011;578;48.408;10.004;2022-08-23T14:59:33;3.33;;;3.03;;
1178;SDS011;578;48.408;10.004;2022-08-23T15:02:00;5.07;;;3.80;;
1178;SDS011;578;48.408;10.004;2022-08-23T15:04:27;4.77;;;4.00;;
1178;SDS011;578;48.408;10.004;2022-08-23T15:06:53;4.70;;;3.23;;
1178;SDS011;578;48.408;10.004;2022-08-23T15:09:23;3.40;;;3.10;;
1178;SDS011;578;48.408;10.004;2022-08-23T15:11:50;5.10;;;3.53;;
1178;SDS011;578;48.408;10.004;2022-08-23T15:14:16;3.93;;;3.07;;
1178;SDS011;578;48.408;10.004;2022-08-23T15:16:43;7.03;;;3.10;;
1178;SDS011;578;48.408;10.004;2022-08-23T15:19:10;5.20;;;3.60;;
1178;SDS011;578;48.408;10.004;2022-08-23T15:21:37;4.67;;;3.27;;
1178;SDS011;578;48.408;10.004;2022-08-23T15:24:04;3.77;;;3.47;;
1178;SDS011;578;48.408;10.004;2022-08-23T15:26:33;5.23;;;3.83;;
1178;SDS011;578;48.408;10.004;2022-08-23T15:29:00;4.60;;;3.47;;
1178;SDS011;578;48.408;10.004;2022-08-23T15:31:27;3.23;;;2.93;;
1178;SDS011;578;48.408;10.004;2022-08-23T15:33:54;4.07;;;3.00;;
1178;SDS011;578;48.408;10.004;2022-08-23T15:36:21;3.97;;;3.60;;
1178;SDS011;578;48.408;10.004;2022-08-23T15:38:48;4.83;;;3.60;;